Time;durP1;ratioP1;P1;durP2;ratioP2;P2;SDS_P1;SDS_P2;PMS_P1;PMS_P2;Temp;Humidity;BMP_temperature;BMP_pressure;BME280_temperature;BME280_humidity;BME280_pressure;Samples;Min_cycle;Max_cycle;Signal;HPM_P1;HPM_P2
2022/10/29 00:08:58;;;;;;;20.47;7.77;;;14.20;19.60;;;;;;5056888;28;20549;-88
2022/10/29 00:11:24;;;;;;;31.33;7.93;;;14.30;20.10;;;;;;5051310;28;20947;-83
2022/10/29 00:17:12;;;;;;;26.93;8.90;;;14.20;22.20;;;;;;5048540;28;20186;-83
2022/10/29 00:22:59;;;;;;;28.40;9.10;;;14.10;23.50;;;;;;5039693;28;20179;-83
2022/10/29 00:28:51;;;;;;;26.67;7.43;;;14.00;21.50;;;;;;5048196;28;20178;-82
2022/10/29 00:31:28;;;;;;;15.53;6.23;;;14.00;20.60;;;;;;5051336;28;20464;-83
2022/10/29 00:37:39;;;;;;;26.70;8.67;;;13.90;20.10;;;;;;5053818;28;20556;-83
2022/10/29 00:40:57;;;;;;;32.23;9.07;;;13.90;19.90;;;;;;5047992;28;20961;-88
2022/10/29 00:51:03;;;;;;;38.83;8.30;;;13.80;23.80;;;;;;5047251;28;20497;-88
2022/10/29 01:00:17;;;;;;;15.17;6.90;;;13.60;25.50;;;;;;5047555;28;20758;-88
2022/10/29 01:06:05;;;;;;;20.13;8.30;;;13.60;26.70;;;;;;5055991;28;20496;-89
2022/10/29 01:11:59;;;;;;;20.80;8.53;;;13.50;29.10;;;;;;5055394;28;20447;-83
2022/10/29 01:15:09;;;;;;;29.03;7.50;;;13.50;30.10;;;;;;5048376;28;20847;-83
2022/10/29 01:17:50;;;;;;;17.63;6.60;;;13.50;30.80;;;;;;5039120;28;20465;-83
2022/10/29 01:20:31;;;;;;;29.53;8.80;;;13.40;28.90;;;;;;5047497;28;20419;-83
2022/10/29 01:23:16;;;;;;;31.40;8.53;;;13.40;28.10;;;;;;5047132;28;20930;-83
2022/10/29 01:33:03;;;;;;;17.00;6.50;;;13.30;29.90;;;;;;5051406;28;20430;-88
2022/10/29 01:35:45;;;;;;;20.53;7.13;;;13.30;34.70;;;;;;5041783;28;20618;-89
2022/10/29 01:38:34;;;;;;;18.23;7.53;;;13.20;43.20;;;;;;5049368;28;20398;-89
2022/10/29 01:41:33;;;;;;;19.07;6.80;;;13.20;44.70;;;;;;5047490;28;20419;-89
2022/10/29 01:47:56;;;;;;;24.70;8.93;;;13.20;44.70;;;;;;5050597;28;20440;-89
2022/10/29 01:50:23;;;;;;;16.57;7.07;;;13.20;44.60;;;;;;5051111;28;20450;-89
2022/10/29 01:56:11;;;;;;;34.27;8.03;;;13.10;44.70;;;;;;5044622;28;20415;-84
2022/10/29 01:59:27;;;;;;;22.07;8.20;;;13.10;44.60;;;;;;5050861;28;20398;-83
2022/10/29 02:02:19;;;;;;;30.47;8.70;;;13.00;44.50;;;;;;5056070;28;20245;-83
2022/10/29 02:05:10;;;;;;;18.53;7.40;;;13.00;44.60;;;;;;5053835;28;20438;-83
2022/10/29 02:08:09;;;;;;;18.67;7.17;;;13.00;44.70;;;;;;5034291;28;20426;-84
2022/10/29 02:14:45;;;;;;;19.43;7.80;;;12.90;44.50;;;;;;5034377;28;21143;-89
2022/10/29 02:20:33;;;;;;;31.83;8.97;;;12.90;44.60;;;;;;5044583;28;20421;-88
2022/10/29 02:23:04;;;;;;;34.47;8.03;;;12.80;44.40;;;;;;5037859;28;20422;-89
2022/10/29 02:29:03;;;;;;;26.90;6.70;;;12.80;44.30;;;;;;5046844;28;20381;-89
2022/10/29 02:32:15;;;;;;;22.90;7.80;;;12.70;44.30;;;;;;5043181;28;20516;-89
2022/10/29 02:35:03;;;;;;;12.93;6.50;;;12.70;44.30;;;;;;5039775;28;20429;-87
2022/10/29 02:40:58;;;;;;;34.40;7.90;;;12.70;44.30;;;;;;5043724;28;20413;-84
2022/10/29 02:43:28;;;;;;;32.30;6.97;;;12.70;44.30;;;;;;5054121;28;20421;-83
2022/10/29 02:49:15;;;;;;;14.03;6.40;;;12.60;44.20;;;;;;5052728;28;20404;-83
2022/10/29 02:51:52;;;;;;;20.30;6.67;;;12.60;44.20;;;;;;5052802;28;20453;-84
2022/10/29 02:54:39;;;;;;;27.33;6.80;;;12.60;44.20;;;;;;5053088;28;20167;-84
2022/10/29 03:03:49;;;;;;;20.63;6.40;;;12.50;44.10;;;;;;5053283;28;20445;-86
2022/10/29 03:06:39;;;;;;;19.63;7.03;;;12.40;44.00;;;;;;5041945;28;20430;-86
2022/10/29 03:09:22;;;;;;;17.83;6.60;;;12.40;44.00;;;;;;5043052;28;20278;-87
2022/10/29 03:11:52;;;;;;;19.00;7.13;;;12.40;44.00;;;;;;5053021;28;20502;-85
2022/10/29 03:14:34;;;;;;;25.50;8.33;;;12.40;44.00;;;;;;5049544;28;20434;-84
2022/10/29 03:17:04;;;;;;;28.93;8.30;;;12.40;44.00;;;;;;5044070;28;20414;-84
2022/10/29 03:19:46;;;;;;;25.77;7.30;;;12.40;44.00;;;;;;5051756;28;20483;-84
2022/10/29 03:22:16;;;;;;;27.33;8.00;;;12.40;44.00;;;;;;5053495;28;20915;-84
2022/10/29 03:24:46;;;;;;;21.90;7.07;;;12.30;43.90;;;;;;5036164;28;20491;-84
2022/10/29 03:27:57;;;;;;;20.73;7.47;;;12.30;44.00;;;;;;5045771;28;20403;-83
2022/10/29 03:30:28;;;;;;;28.43;7.20;;;12.20;43.90;;;;;;5046001;28;20480;-83
2022/10/29 03:36:15;;;;;;;29.00;7.47;;;12.20;43.90;;;;;;5047181;28;20451;-84
2022/10/29 03:46:03;;;;;;;24.40;7.70;;;12.20;43.90;;;;;;5052838;28;20781;-86
2022/10/29 03:48:57;;;;;;;19.63;7.67;;;12.10;43.70;;;;;;5036788;28;20442;-87
2022/10/29 03:54:45;;;;;;;20.93;7.70;;;12.10;44.00;;;;;;5052550;28;20846;-87
2022/10/29 04:00:32;;;;;;;19.63;8.30;;;12.10;43.90;;;;;;5047903;28;20210;-86
2022/10/29 04:13:45;;;;;;;29.20;8.10;;;12.00;43.60;;;;;;5054537;28;20502;-87
2022/10/29 04:22:54;;;;;;;29.60;8.47;;;12.00;43.60;;;;;;5044008;28;20922;-87
2022/10/29 04:28:42;;;;;;;24.37;7.90;;;12.00;43.60;;;;;;5055018;28;20202;-87
2022/10/29 04:41:14;;;;;;;23.17;8.60;;;12.20;43.80;;;;;;5047865;28;20450;-87
2022/10/29 04:44:03;;;;;;;30.57;9.10;;;12.30;43.90;;;;;;5039015;28;20418;-87
2022/10/29 04:49:51;;;;;;;17.30;7.47;;;12.40;44.00;;;;;;5045986;28;20533;-87
2022/10/29 04:55:38;;;;;;;22.10;7.53;;;12.60;44.20;;;;;;5053556;28;20182;-87
2022/10/29 04:58:57;;;;;;;26.03;8.50;;;12.60;44.20;;;;;;5050011;28;20433;-87
2022/10/29 05:01:23;;;;;;;23.53;8.07;;;12.70;44.30;;;;;;5053650;28;20180;-84
2022/10/29 05:03:49;;;;;;;16.50;8.10;;;12.80;44.40;;;;;;5053382;28;20411;-84
2022/10/29 05:06:57;;;;;;;24.00;8.80;;;12.80;44.40;;;;;;5054320;28;20202;-84
2022/10/29 05:09:23;;;;;;;20.20;8.10;;;12.80;44.50;;;;;;5047962;28;20177;-84
2022/10/29 05:11:58;;;;;;;44.20;9.23;;;12.80;44.40;;;;;;5053945;28;20468;-84
2022/10/29 05:14:51;;;;;;;23.80;8.13;;;12.80;44.30;;;;;;5053879;28;20508;-87
2022/10/29 05:20:39;;;;;;;24.60;8.00;;;13.00;44.50;;;;;;5052296;28;20409;-87
2022/10/29 05:23:39;;;;;;;21.43;8.33;;;13.00;44.60;;;;;;5049909;28;20419;-88
2022/10/29 05:33:07;;;;;;;20.43;7.30;;;13.20;44.60;;;;;;5054131;28;20451;-85
2022/10/29 05:39:15;;;;;;;31.40;7.60;;;13.20;44.90;;;;;;5057900;28;20455;-87
2022/10/29 05:45:40;;;;;;;17.70;8.20;;;13.20;44.90;;;;;;5052552;28;20916;-87
2022/10/29 05:51:27;;;;;;;23.73;8.10;;;13.30;44.80;;;;;;5042039;28;20964;-87
2022/10/29 05:54:21;;;;;;;21.97;9.93;;;13.30;38.20;;;;;;5053000;28;20400;-89
2022/10/29 06:00:16;;;;;;;18.50;8.93;;;13.30;40.20;;;;;;5044568;28;20406;-77
2022/10/29 06:02:43;;;;;;;16.17;7.70;;;13.30;42.90;;;;;;5037034;28;20426;-77
2022/10/29 06:05:08;;;;;;;21.33;8.73;;;13.30;44.80;;;;;;5034312;28;20802;-76
2022/10/29 06:07:34;;;;;;;25.73;8.47;;;13.30;44.90;;;;;;5040672;28;20422;-76
2022/10/29 06:10:04;;;;;;;19.00;6.80;;;13.40;45.00;;;;;;5053660;28;20167;-76
2022/10/29 06:12:46;;;;;;;21.80;8.40;;;13.40;43.60;;;;;;5052595;28;20262;-76
2022/10/29 06:15:16;;;;;;;21.43;7.97;;;13.40;45.00;;;;;;5052306;28;20901;-76
2022/10/29 06:17:46;;;;;;;20.93;8.10;;;13.40;38.90;;;;;;5046046;28;21006;-76
2022/10/29 06:20:14;;;;;;;27.37;7.73;;;13.50;36.70;;;;;;5047728;28;20402;-76
2022/10/29 06:22:40;;;;;;;15.83;7.90;;;13.50;32.20;;;;;;5051493;28;20421;-76
2022/10/29 06:25:06;;;;;;;18.77;8.43;;;13.50;31.90;;;;;;5060138;28;20390;-76
2022/10/29 06:27:32;;;;;;;24.20;7.53;;;13.50;33.70;;;;;;5041495;28;20442;-77
2022/10/29 06:29:58;;;;;;;30.93;8.97;;;13.60;32.60;;;;;;5040785;28;20547;-78
2022/10/29 06:32:40;;;;;;;25.60;8.27;;;13.60;31.00;;;;;;5053551;28;20565;-78
2022/10/29 06:35:16;;;;;;;28.47;7.70;;;13.60;32.80;;;;;;5045953;28;20520;-78
2022/10/29 06:37:52;;;;;;;19.33;7.60;;;13.70;31.90;;;;;;5048560;28;20843;-78
2022/10/29 06:40:40;;;;;;;28.80;8.20;;;13.70;30.70;;;;;;5053548;28;20421;-78
2022/10/29 06:43:11;;;;;;;24.03;8.30;;;13.80;30.80;;;;;;5040767;28;20411;-78
2022/10/29 06:45:48;;;;;;;15.93;7.47;;;13.80;29.90;;;;;;5046766;28;20426;-77
2022/10/29 06:48:22;;;;;;;20.10;8.07;;;13.90;32.70;;;;;;5050508;28;20794;-77
2022/10/29 06:50:48;;;;;;;18.90;8.43;;;13.80;29.70;;;;;;5044701;28;20451;-76
2022/10/29 06:53:14;;;;;;;24.53;9.10;;;13.90;27.10;;;;;;5039017;28;20926;-77
2022/10/29 06:55:46;;;;;;;15.83;8.27;;;13.90;29.70;;;;;;5041542;28;20407;-77
2022/10/29 06:58:19;;;;;;;21.90;8.83;;;14.00;30.10;;;;;;5050364;28;20409;-78
2022/10/29 07:00:46;;;;;;;24.80;8.97;;;14.00;27.40;;;;;;5048312;28;20406;-79
2022/10/29 07:03:33;;;;;;;20.20;9.27;;;14.10;26.90;;;;;;5045319;28;20899;-79
2022/10/29 07:05:59;;;;;;;27.17;8.70;;;14.10;25.80;;;;;;5051230;28;20453;-78
2022/10/29 07:08:25;;;;;;;15.10;7.47;;;14.10;26.80;;;;;;5044414;28;20426;-79
2022/10/29 07:11:10;;;;;;;22.43;8.37;;;14.20;27.40;;;;;;5040208;28;20199;-79
2022/10/29 07:13:35;;;;;;;23.87;8.10;;;14.30;28.00;;;;;;5039942;28;20407;-77
2022/10/29 07:16:10;;;;;;;22.67;8.63;;;14.40;24.10;;;;;;5043257;28;20413;-77
2022/10/29 07:18:40;;;;;;;31.10;8.40;;;14.50;22.20;;;;;;5034702;28;20278;-76
2022/10/29 07:21:11;;;;;;;28.17;9.30;;;14.50;21.60;;;;;;5064468;28;20904;-77
2022/10/29 07:23:40;;;;;;;26.63;8.67;;;14.60;19.30;;;;;;5051082;28;20410;-77
2022/10/29 07:26:16;;;;;;;21.63;7.90;;;14.60;18.30;;;;;;5052353;28;20459;-76
2022/10/29 07:29:34;;;;;;;26.70;8.43;;;14.70;18.00;;;;;;5065824;28;21018;-77
2022/10/29 07:32:16;;;;;;;19.70;9.03;;;14.70;17.50;;;;;;5042729;28;20468;-77
2022/10/29 07:34:42;;;;;;;24.60;8.50;;;14.70;18.20;;;;;;5039928;28;20415;-76
2022/10/29 07:37:10;;;;;;;12.40;6.57;;;14.80;15.90;;;;;;5045685;28;20419;-77
2022/10/29 07:39:46;;;;;;;19.03;6.50;;;14.80;16.20;;;;;;5049479;28;20650;-77
2022/10/29 07:42:34;;;;;;;16.13;7.43;;;14.90;16.00;;;;;;5041997;28;20413;-76
2022/10/29 07:45:28;;;;;;;20.50;7.17;;;15.00;16.80;;;;;;5038571;28;20411;-78
2022/10/29 07:48:22;;;;;;;19.03;8.30;;;15.00;16.80;;;;;;5038962;28;20403;-78
2022/10/29 07:51:04;;;;;;;28.40;7.80;;;15.10;15.70;;;;;;5056734;28;20450;-79
2022/10/29 07:53:34;;;;;;;22.50;8.07;;;15.20;14.60;;;;;;5044292;28;20402;-79
2022/10/29 07:56:10;;;;;;;23.10;7.47;;;15.30;14.20;;;;;;5055488;28;20407;-78
2022/10/29 07:58:40;;;;;;;14.63;6.57;;;15.40;14.90;;;;;;5043964;28;20424;-78
2022/10/29 08:01:06;;;;;;;25.60;7.60;;;15.40;13.80;;;;;;5054054;28;20415;-79
2022/10/29 08:03:48;;;;;;;20.93;6.70;;;15.60;13.10;;;;;;5056613;28;20451;-79
2022/10/29 08:06:22;;;;;;;14.57;6.80;;;15.70;10.70;;;;;;5057156;28;20179;-80
2022/10/29 08:08:48;;;;;;;17.00;7.50;;;15.80;8.00;;;;;;5056442;28;20464;-78
2022/10/29 08:11:13;;;;;;;13.67;7.00;;;15.90;7.40;;;;;;5040595;28;20532;-72
2022/10/29 08:13:39;;;;;;;23.83;7.30;;;16.00;7.10;;;;;;5055312;28;20210;-71
2022/10/29 08:16:05;;;;;;;19.87;7.70;;;16.10;6.40;;;;;;5052684;28;20254;-72
2022/10/29 08:18:30;;;;;;;20.23;8.00;;;16.20;5.00;;;;;;5049971;28;20210;-71
2022/10/29 08:20:56;;;;;;;24.03;7.53;;;16.30;3.40;;;;;;5050956;28;20640;-70
2022/10/29 08:23:22;;;;;;;15.37;7.50;;;16.40;3.40;;;;;;5043255;28;20252;-69
2022/10/29 08:25:48;;;;;;;18.10;5.87;;;16.40;1.90;;;;;;5050075;28;20184;-71
2022/10/29 08:28:15;;;;;;;13.90;7.00;;;16.50;1.00;;;;;;5054092;28;20759;-71
2022/10/29 08:30:42;;;;;;;14.20;7.20;;;16.70;1.00;;;;;;5051102;28;20204;-70
2022/10/29 08:33:09;;;;;;;11.90;5.67;;;16.90;1.00;;;;;;5053488;28;20435;-71
2022/10/29 08:35:53;;;;;;;15.33;6.20;;;17.00;1.00;;;;;;5042803;28;20394;-86
2022/10/29 08:38:28;;;;;;;16.83;6.03;;;17.20;1.00;;;;;;5038763;28;20396;-78
2022/10/29 08:41:28;;;;;;;13.30;5.80;;;17.30;1.00;;;;;;5045717;28;21014;-80
2022/10/29 08:44:25;;;;;;;14.73;5.53;;;17.40;1.00;;;;;;5053838;28;20450;-79
2022/10/29 08:47:15;;;;;;;8.97;5.13;;;17.40;1.00;;;;;;5042273;28;20489;-79
2022/10/29 08:49:50;;;;;;;16.07;6.33;;;17.50;1.00;;;;;;5051184;28;20413;-79
2022/10/29 08:52:33;;;;;;;18.30;6.43;;;17.60;1.00;;;;;;5040622;28;20448;-79
2022/10/29 08:55:45;;;;;;;14.03;6.27;;;17.70;1.00;;;;;;5055436;28;20379;-79
2022/10/29 08:58:39;;;;;;;24.53;6.40;;;17.70;1.00;;;;;;5040756;28;20468;-79
2022/10/29 09:01:11;;;;;;;9.60;5.80;;;17.90;1.00;;;;;;5054497;28;20425;-79
2022/10/29 09:03:53;;;;;;;18.60;6.80;;;17.90;1.00;;;;;;5044744;28;20388;-79
2022/10/29 09:06:45;;;;;;;18.30;7.30;;;18.00;1.00;;;;;;5055117;28;20423;-78
2022/10/29 09:09:22;;;;;;;20.73;6.80;;;18.10;1.00;;;;;;5052170;28;20421;-79
2022/10/29 09:12:18;;;;;;;20.80;6.67;;;18.20;1.00;;;;;;5045392;28;20467;-79
2022/10/29 09:18:29;;;;;;;17.20;6.07;;;18.40;1.00;;;;;;5039904;28;20431;-80
2022/10/29 09:21:08;;;;;;;18.13;6.90;;;18.50;1.00;;;;;;5049733;28;20891;-80
2022/10/29 09:24:16;;;;;;;21.97;8.23;;;18.60;1.00;;;;;;5054974;28;20384;-80
2022/10/29 09:26:59;;;;;;;13.20;7.00;;;18.70;1.00;;;;;;5054983;28;20469;-80
2022/10/29 09:29:41;;;;;;;24.20;7.50;;;18.80;1.00;;;;;;5043705;28;20393;-80
2022/10/29 09:32:21;;;;;;;17.17;7.17;;;18.90;1.00;;;;;;5040483;28;20996;-79
2022/10/29 09:34:55;;;;;;;17.90;8.23;;;19.00;1.00;;;;;;5047002;28;20966;-79
2022/10/29 09:37:42;;;;;;;21.17;8.17;;;19.00;1.00;;;;;;5044715;28;20426;-79
2022/10/29 09:40:32;;;;;;;20.33;7.37;;;19.10;1.00;;;;;;5035249;28;20898;-79
2022/10/29 09:43:33;;;;;;;25.40;7.50;;;19.30;1.00;;;;;;5048035;28;20396;-78
2022/10/29 09:46:20;;;;;;;21.73;6.80;;;19.40;1.00;;;;;;5044432;28;20408;-80
2022/10/29 09:49:12;;;;;;;14.80;7.67;;;19.40;1.00;;;;;;5037562;28;20422;-79
2022/10/29 09:52:04;;;;;;;27.57;8.17;;;19.50;1.00;;;;;;5044294;28;20463;-79
2022/10/29 09:54:49;;;;;;;16.40;7.60;;;19.50;1.00;;;;;;5047708;28;20774;-79
2022/10/29 09:57:30;;;;;;;29.97;8.70;;;19.60;1.00;;;;;;5046605;28;20381;-79
2022/10/29 10:00:07;;;;;;;21.13;8.40;;;19.60;1.00;;;;;;5046631;28;20957;-79
2022/10/29 10:02:43;;;;;;;32.67;10.63;;;19.70;1.00;;;;;;5058847;28;20927;-79
2022/10/29 10:05:17;;;;;;;21.17;8.87;;;19.70;1.00;;;;;;5053593;28;20415;-78
2022/10/29 10:08:02;;;;;;;26.33;9.70;;;19.60;1.00;;;;;;5054239;28;20415;-79
2022/10/29 10:11:06;;;;;;;30.87;9.70;;;19.50;1.00;;;;;;5053997;28;20417;-79
2022/10/29 10:14:13;;;;;;;20.80;8.27;;;19.60;1.00;;;;;;5012056;28;20417;-78
2022/10/29 10:17:12;;;;;;;25.50;9.60;;;19.60;1.00;;;;;;4970186;28;20987;-83
2022/10/29 10:19:52;;;;;;;33.03;8.90;;;19.70;1.00;;;;;;4978915;28;20429;-81
2022/10/29 10:22:45;;;;;;;23.43;8.53;;;19.70;1.00;;;;;;4962797;28;20984;-83
2022/10/29 10:25:35;;;;;;;21.70;8.10;;;19.80;1.00;;;;;;4961085;28;20421;-81
2022/10/29 10:28:21;;;;;;;22.23;9.30;;;19.80;1.00;;;;;;4943767;28;20403;-82
2022/10/29 10:31:16;;;;;;;20.13;8.70;;;19.90;1.00;;;;;;4954182;28;20477;-81
2022/10/29 10:33:53;;;;;;;23.17;10.57;;;20.10;1.00;;;;;;4934855;29;20553;-82
2022/10/29 10:36:56;;;;;;;18.77;9.30;;;20.30;1.00;;;;;;4971424;28;20438;-81
2022/10/29 10:39:41;;;;;;;35.23;10.00;;;20.30;1.00;;;;;;4968387;28;21047;-81
2022/10/29 10:42:29;;;;;;;23.40;10.27;;;20.50;1.00;;;;;;4966704;28;20514;-81
2022/10/29 10:45:04;;;;;;;31.37;11.20;;;20.80;1.00;;;;;;4987235;28;20438;-81
2022/10/29 10:47:35;;;;;;;24.60;10.47;;;21.00;1.00;;;;;;4979596;28;20466;-81
2022/10/29 10:53:28;;;;;;;25.03;8.93;;;21.00;1.00;;;;;;5051451;28;20388;-82
2022/10/29 10:55:58;;;;;;;33.80;9.70;;;21.20;1.00;;;;;;5051706;28;20414;-80
2022/10/29 10:58:41;;;;;;;40.63;8.90;;;21.30;1.00;;;;;;5055059;28;20416;-81
2022/10/29 11:01:44;;;;;;;26.57;9.20;;;21.30;1.00;;;;;;5056210;28;20455;-81
2022/10/29 11:04:19;;;;;;;22.37;9.70;;;21.10;1.00;;;;;;5040166;28;20415;-81
2022/10/29 11:07:11;;;;;;;22.17;8.10;;;21.00;1.00;;;;;;5043214;28;20405;-81
2022/10/29 11:09:42;;;;;;;24.30;8.30;;;21.00;1.00;;;;;;5041966;28;20439;-81
2022/10/29 11:12:34;;;;;;;18.10;7.87;;;21.10;1.00;;;;;;5039207;28;20430;-81
2022/10/29 11:15:15;;;;;;;15.77;7.60;;;21.10;1.00;;;;;;5043572;28;20387;-81
2022/10/29 11:17:58;;;;;;;21.77;7.47;;;21.10;1.00;;;;;;5045914;28;20431;-82
2022/10/29 11:21:03;;;;;;;25.53;6.70;;;21.20;1.00;;;;;;5051606;28;20411;-81
2022/10/29 11:24:12;;;;;;;17.00;7.60;;;21.20;1.00;;;;;;5047919;28;20466;-81
2022/10/29 11:27:01;;;;;;;17.13;7.37;;;21.40;1.00;;;;;;5049189;28;20428;-81
2022/10/29 11:33:19;;;;;;;29.40;7.20;;;21.60;1.00;;;;;;5050080;28;20943;-82
2022/10/29 11:36:15;;;;;;;25.43;15.20;;;21.60;1.00;;;;;;5037273;28;20391;-81
2022/10/29 11:39:03;;;;;;;26.70;7.17;;;21.70;1.00;;;;;;5050245;28;20459;-82
2022/10/29 11:41:56;;;;;;;21.77;7.07;;;21.70;1.00;;;;;;5050389;28;20402;-82
2022/10/29 11:44:36;;;;;;;17.63;6.47;;;21.80;1.00;;;;;;5049552;28;20910;-81
2022/10/29 11:47:58;;;;;;;22.37;6.83;;;21.80;1.00;;;;;;5045905;28;20437;-80
2022/10/29 11:51:06;;;;;;;17.60;6.80;;;21.90;1.00;;;;;;5045866;28;20457;-86
2022/10/29 11:57:11;;;;;;;26.73;7.40;;;22.00;1.00;;;;;;5053719;28;20424;-85
2022/10/29 11:59:50;;;;;;;17.23;6.47;;;22.10;1.00;;;;;;5048814;28;20776;-86
2022/10/29 12:02:37;;;;;;;20.57;6.43;;;22.20;1.00;;;;;;5050782;28;20456;-85
2022/10/29 12:05:41;;;;;;;19.07;7.30;;;22.30;1.00;;;;;;5057315;28;20452;-84
2022/10/29 12:08:36;;;;;;;10.40;5.80;;;22.30;1.00;;;;;;4975534;28;20544;-69
2022/10/29 12:11:25;;;;;;;19.90;6.33;;;22.30;1.00;;;;;;4974436;28;20506;-69
2022/10/29 12:14:25;;;;;;;18.70;6.93;;;22.20;1.00;;;;;;4975122;28;20437;-69
2022/10/29 12:17:12;;;;;;;17.70;6.57;;;22.20;1.00;;;;;;4960629;28;20509;-69
2022/10/29 12:19:59;;;;;;;23.03;7.10;;;22.30;1.00;;;;;;4974489;28;20527;-69
2022/10/29 12:22:55;;;;;;;17.53;6.80;;;22.30;1.00;;;;;;4973189;28;20497;-69
2022/10/29 12:25:39;;;;;;;26.10;7.17;;;22.30;1.00;;;;;;4974773;28;20429;-69
2022/10/29 12:28:25;;;;;;;13.60;6.37;;;22.20;1.00;;;;;;4973570;28;20434;-69
2022/10/29 12:30:57;;;;;;;16.17;6.07;;;22.20;1.00;;;;;;4966123;28;20462;-69
2022/10/29 12:33:36;;;;;;;17.30;6.40;;;22.20;1.00;;;;;;4974147;28;20441;-69
2022/10/29 12:36:19;;;;;;;14.17;6.20;;;22.30;1.00;;;;;;4974530;28;20428;-69
2022/10/29 12:39:00;;;;;;;18.50;7.17;;;22.30;1.00;;;;;;4969451;28;20536;-69
2022/10/29 12:41:40;;;;;;;15.47;6.00;;;22.20;1.00;;;;;;4974768;28;20508;-69
2022/10/29 12:44:26;;;;;;;17.77;6.40;;;22.20;1.00;;;;;;5018436;28;20489;-69
2022/10/29 12:47:03;;;;;;;13.37;6.07;;;22.20;1.00;;;;;;5053455;28;20410;-71
2022/10/29 12:50:06;;;;;;;25.23;8.00;;;22.10;1.00;;;;;;5047668;28;20434;-85
2022/10/29 12:53:03;;;;;;;19.93;8.60;;;22.10;1.00;;;;;;4963086;28;20504;-85
2022/10/29 12:55:53;;;;;;;21.93;8.40;;;22.00;1.00;;;;;;4981563;28;20440;-85
2022/10/29 13:05:09;;;;;;;23.90;8.20;;;21.90;1.00;;;;;;4963670;28;20447;-84
2022/10/29 13:07:44;;;;;;;30.20;9.40;;;21.90;1.00;;;;;;4974761;28;20406;-83
2022/10/29 13:13:38;;;;;;;24.80;9.27;;;21.80;1.00;;;;;;4974637;28;20397;-84
2022/10/29 13:16:15;;;;;;;17.50;8.57;;;21.70;1.00;;;;;;4970466;28;20440;-83
2022/10/29 13:19:10;;;;;;;20.77;7.93;;;21.60;1.00;;;;;;4968880;28;20443;-82
2022/10/29 13:22:23;;;;;;;30.83;8.53;;;21.70;1.00;;;;;;4956981;28;20433;-83
2022/10/29 13:28:36;;;;;;;21.60;7.80;;;21.70;1.00;;;;;;4966739;28;20542;-81
2022/10/29 13:31:22;;;;;;;29.03;8.63;;;21.80;1.00;;;;;;5012929;28;20486;-82
2022/10/29 13:34:42;;;;;;;23.60;8.60;;;21.80;1.00;;;;;;5013310;28;20427;-82
2022/10/29 13:44:28;;;;;;;12.27;7.37;;;21.80;1.00;;;;;;4959619;28;20419;-83
2022/10/29 13:47:20;;;;;;;22.43;8.40;;;21.80;1.00;;;;;;4956932;28;20938;-83
2022/10/29 13:53:12;;;;;;;19.03;7.37;;;21.70;1.00;;;;;;4971818;28;20408;-82
2022/10/29 13:56:16;;;;;;;23.30;7.17;;;21.60;1.00;;;;;;4949356;28;20498;-84
2022/10/29 13:58:50;;;;;;;34.77;8.13;;;21.60;1.00;;;;;;4973621;28;20507;-82
2022/10/29 14:01:59;;;;;;;26.43;7.50;;;21.60;1.00;;;;;;4986417;28;20458;-83
2022/10/29 14:04:36;;;;;;;30.40;8.07;;;21.70;1.00;;;;;;5012746;28;20995;-82
2022/10/29 14:07:05;;;;;;;30.43;7.43;;;21.80;1.00;;;;;;4996142;28;20582;-82
2022/10/29 14:10:00;;;;;;;25.20;8.00;;;21.80;1.00;;;;;;5012211;28;20421;-82
2022/10/29 14:12:37;;;;;;;15.77;7.50;;;21.80;1.00;;;;;;5054024;28;20472;-82
2022/10/29 14:18:32;;;;;;;22.37;7.67;;;21.90;1.00;;;;;;5035148;28;20920;-85
2022/10/29 14:21:29;;;;;;;16.37;5.97;;;21.90;1.00;;;;;;5046129;28;20416;-84
2022/10/29 14:27:46;;;;;;;22.60;7.97;;;22.00;1.00;;;;;;5040652;28;20390;-83
2022/10/29 14:33:36;;;;;;;36.47;8.43;;;21.90;1.00;;;;;;5034148;28;20445;-83
2022/10/29 14:36:27;;;;;;;25.23;9.83;;;22.00;1.00;;;;;;5052224;28;20904;-82
2022/10/29 14:39:01;;;;;;;30.90;9.73;;;22.00;1.00;;;;;;5045549;28;20445;-84
2022/10/29 14:41:29;;;;;;;40.27;10.83;;;22.00;1.00;;;;;;5053525;28;20423;-81
2022/10/29 14:44:15;;;;;;;32.23;11.00;;;22.00;1.00;;;;;;5043834;28;20761;-81
2022/10/29 14:47:23;;;;;;;26.17;9.50;;;22.00;1.00;;;;;;5048738;28;20424;-82
2022/10/29 14:50:17;;;;;;;23.00;9.20;;;21.90;1.00;;;;;;4970130;28;20498;-82
2022/10/29 14:52:56;;;;;;;20.70;7.67;;;21.80;1.00;;;;;;4960489;28;20777;-81
2022/10/29 14:55:29;;;;;;;26.73;9.30;;;21.80;1.00;;;;;;4937118;29;20881;-82
2022/10/29 14:58:01;;;;;;;17.37;8.30;;;21.70;1.00;;;;;;4950101;28;20425;-81
2022/10/29 15:00:31;;;;;;;27.70;8.10;;;21.60;1.00;;;;;;4969099;28;20433;-82
2022/10/29 15:03:07;;;;;;;23.60;8.30;;;21.50;1.00;;;;;;4972629;28;20473;-82
2022/10/29 15:06:10;;;;;;;19.90;9.47;;;21.40;1.00;;;;;;4972259;28;20486;-82
2022/10/29 15:08:44;;;;;;;25.60;9.00;;;21.30;1.00;;;;;;4972442;28;20411;-82
2022/10/29 15:11:32;;;;;;;23.47;9.13;;;21.20;1.00;;;;;;4969326;28;20475;-82
2022/10/29 15:13:58;;;;;;;25.47;8.97;;;21.10;1.00;;;;;;4961814;28;20415;-82
2022/10/29 15:19:46;;;;;;;24.63;9.87;;;20.90;1.00;;;;;;4962488;28;20925;-82
2022/10/29 15:22:23;;;;;;;24.53;9.73;;;20.70;1.00;;;;;;4969165;28;20429;-81
2022/10/29 15:25:01;;;;;;;25.07;9.27;;;20.60;1.00;;;;;;5029472;28;20871;-82
2022/10/29 15:27:34;;;;;;;24.83;9.40;;;20.50;1.00;;;;;;5038735;28;20882;-82
2022/10/29 15:30:05;;;;;;;23.57;10.20;;;20.40;1.00;;;;;;5054927;28;20434;-82
2022/10/29 15:33:07;;;;;;;22.33;9.60;;;20.40;1.00;;;;;;5042535;28;20868;-82
2022/10/29 15:35:35;;;;;;;22.13;9.97;;;20.20;1.00;;;;;;5050128;28;20544;-82
2022/10/29 15:38:04;;;;;;;22.37;9.70;;;20.20;1.00;;;;;;5035827;28;20443;-82
2022/10/29 15:41:00;;;;;;;22.83;7.97;;;20.10;1.00;;;;;;5051714;28;20437;-82
2022/10/29 15:43:53;;;;;;;25.23;9.87;;;20.00;1.00;;;;;;5051070;28;20424;-82
2022/10/29 15:47:11;;;;;;;30.77;10.07;;;19.90;1.00;;;;;;5041049;28;20421;-82
2022/10/29 15:53:15;;;;;;;27.10;9.53;;;19.60;1.00;;;;;;5047276;28;20478;-83
2022/10/29 15:56:04;;;;;;;32.67;9.80;;;19.40;1.00;;;;;;5051720;28;20411;-83
2022/10/29 15:58:34;;;;;;;33.27;10.63;;;19.20;1.00;;;;;;5036363;28;20879;-84
2022/10/29 16:01:13;;;;;;;25.83;10.53;;;19.10;1.00;;;;;;5051183;28;20473;-82
2022/10/29 16:04:19;;;;;;;30.70;10.03;;;19.00;1.00;;;;;;5042199;28;20429;-82
2022/10/29 16:06:44;;;;;;;26.83;9.27;;;18.80;1.00;;;;;;5036643;28;20431;-81
2022/10/29 16:10:04;;;;;;;24.43;8.90;;;18.70;1.00;;;;;;5042172;28;20400;-81
2022/10/29 16:13:16;;;;;;;23.83;9.27;;;18.50;1.00;;;;;;5055314;28;20264;-81
2022/10/29 16:15:52;;;;;;;26.47;9.67;;;18.40;1.00;;;;;;5047154;28;20432;-81
2022/10/29 16:18:18;;;;;;;27.23;8.97;;;18.30;1.00;;;;;;5056416;28;20367;-81
2022/10/29 16:20:44;;;;;;;21.47;9.60;;;18.20;1.00;;;;;;5056674;28;20409;-82
2022/10/29 16:23:22;;;;;;;27.53;10.17;;;18.00;1.00;;;;;;5054331;28;20403;-82
2022/10/29 16:26:18;;;;;;;24.53;9.37;;;17.90;1.00;;;;;;5049671;28;20443;-83
2022/10/29 16:28:52;;;;;;;31.80;10.90;;;17.80;1.00;;;;;;5054903;28;20772;-82
2022/10/29 16:38:24;;;;;;;26.60;9.00;;;17.40;1.00;;;;;;5036011;28;20417;-83
2022/10/29 16:41:22;;;;;;;33.30;9.17;;;17.20;1.00;;;;;;5036068;28;20452;-80
2022/10/29 16:44:28;;;;;;;25.30;9.47;;;17.10;1.00;;;;;;5053344;28;20794;-83
2022/10/29 16:53:38;;;;;;;20.93;10.33;;;16.70;1.00;;;;;;5043737;28;20508;-85
2022/10/29 16:56:04;;;;;;;29.03;10.10;;;16.60;1.00;;;;;;5056094;28;20414;-86
2022/10/29 16:58:46;;;;;;;19.63;9.43;;;16.50;1.00;;;;;;5053059;28;20632;-85
2022/10/29 17:01:34;;;;;;;25.07;11.07;;;16.40;1.00;;;;;;5047717;28;20451;-85
2022/10/29 17:04:13;;;;;;;23.33;11.27;;;16.30;1.00;;;;;;5050245;28;20393;-85
2022/10/29 17:07:28;;;;;;;28.37;10.70;;;16.30;1.00;;;;;;5052689;28;20481;-81
2022/10/29 17:10:34;;;;;;;18.10;9.87;;;16.20;1.00;;;;;;5058614;28;20440;-82
2022/10/29 17:16:22;;;;;;;25.70;11.10;;;16.00;1.00;;;;;;5048459;28;20772;-81
2022/10/29 17:18:52;;;;;;;39.00;11.40;;;15.90;1.00;;;;;;5043616;28;20393;-81
2022/10/29 17:21:46;;;;;;;25.93;11.53;;;15.80;1.00;;;;;;5055436;28;20861;-82
2022/10/29 17:24:41;;;;;;;27.57;12.40;;;15.80;1.00;;;;;;5054949;28;20928;-82
2022/10/29 17:27:58;;;;;;;22.53;10.03;;;15.70;1.00;;;;;;5050683;28;20832;-83
2022/10/29 17:30:28;;;;;;;32.37;11.50;;;15.70;1.00;;;;;;5047839;28;20805;-81
2022/10/29 17:32:54;;;;;;;25.80;11.17;;;15.60;1.00;;;;;;5041760;28;20928;-82
2022/10/29 17:38:46;;;;;;;30.13;10.47;;;15.50;1.00;;;;;;5049361;28;20190;-87
2022/10/29 17:44:40;;;;;;;37.33;9.90;;;15.40;1.00;;;;;;5062711;28;20375;-83
2022/10/29 17:47:52;;;;;;;23.10;11.00;;;15.30;1.00;;;;;;5074836;28;20390;-84
2022/10/29 17:57:01;;;;;;;47.87;10.70;;;15.10;1.00;;;;;;5054611;28;20398;-84
2022/10/29 18:00:04;;;;;;;25.87;10.23;;;15.00;1.00;;;;;;5053668;28;20413;-84